Time;durP1;ratioP1;P1;durP2;ratioP2;P2;SDS_P1;SDS_P2;PMS_P1;PMS_P2;Temp;Humidity;BMP_temperature;BMP_pressure;BME280_temperature;BME280_humidity;BME280_pressure;Samples;Min_cycle;Max_cycle;Signal;HPM_P1;HPM_P2
2024/04/20 00:00:16;;;;;;;4.07;2.57;;;8.20;99.90;;;;;;5354310;26;20282;-66
2024/04/20 00:02:42;;;;;;;3.50;2.20;;;8.10;99.90;;;;;;5350209;26;20269;-66
2024/04/20 00:05:07;;;;;;;11.40;3.00;;;8.20;99.90;;;;;;5352608;26;20243;-66
2024/04/20 00:07:33;;;;;;;6.00;2.80;;;8.20;99.90;;;;;;5364536;26;20273;-67
2024/04/20 00:09:59;;;;;;;12.13;3.70;;;8.10;99.90;;;;;;5342419;26;20237;-67
2024/04/20 00:12:25;;;;;;;7.30;2.87;;;8.10;99.90;;;;;;5349127;26;20254;-67
2024/04/20 00:14:53;;;;;;;6.87;3.40;;;8.00;99.90;;;;;;5351875;26;20239;-67
2024/04/20 00:17:19;;;;;;;8.07;3.10;;;8.10;99.90;;;;;;5374327;26;20331;-67
2024/04/20 00:19:45;;;;;;;6.37;2.50;;;8.20;99.90;;;;;;5350941;26;21004;-67
2024/04/20 00:22:12;;;;;;;4.80;3.00;;;8.20;99.90;;;;;;5359210;26;20268;-67
2024/04/20 00:24:38;;;;;;;12.13;3.73;;;8.10;99.90;;;;;;5355004;26;20907;-67
2024/04/20 00:27:05;;;;;;;10.87;3.00;;;8.10;99.90;;;;;;5360964;26;20577;-68
2024/04/20 00:29:31;;;;;;;12.27;3.57;;;8.10;99.90;;;;;;5347562;26;20477;-66
2024/04/20 00:31:56;;;;;;;6.80;3.10;;;8.20;99.90;;;;;;5359717;26;20607;-66
2024/04/20 00:34:22;;;;;;;9.87;4.00;;;8.30;99.90;;;;;;5347324;26;20269;-66
2024/04/20 00:36:51;;;;;;;12.77;3.60;;;8.30;99.90;;;;;;5355741;26;20555;-67
2024/04/20 00:39:17;;;;;;;9.30;4.03;;;8.20;99.90;;;;;;5352639;26;20238;-67
2024/04/20 00:41:51;;;;;;;9.60;4.10;;;8.20;99.90;;;;;;5358142;26;20461;-67
2024/04/20 00:44:17;;;;;;;7.30;3.50;;;8.20;99.90;;;;;;5355601;26;20243;-66
2024/04/20 00:46:45;;;;;;;8.93;3.50;;;8.30;99.90;;;;;;5350785;26;21010;-66
2024/04/20 00:49:11;;;;;;;8.10;3.60;;;8.30;99.90;;;;;;5354689;26;20332;-67
2024/04/20 00:51:38;;;;;;;5.30;3.53;;;8.30;99.90;;;;;;5349156;26;20808;-67
2024/04/20 00:54:05;;;;;;;5.87;3.10;;;8.30;99.90;;;;;;5354276;26;20456;-67
2024/04/20 00:56:31;;;;;;;7.30;3.40;;;8.30;99.90;;;;;;5348820;26;20476;-67
2024/04/20 00:58:58;;;;;;;9.93;3.60;;;8.30;99.90;;;;;;5356419;26;20535;-68
2024/04/20 01:01:24;;;;;;;9.13;3.43;;;8.30;99.90;;;;;;5347160;26;20480;-68
2024/04/20 01:03:50;;;;;;;7.60;3.80;;;8.30;99.90;;;;;;5360150;26;20472;-66
2024/04/20 01:06:16;;;;;;;6.73;3.07;;;8.20;99.90;;;;;;5346149;26;20814;-66
2024/04/20 01:08:42;;;;;;;5.80;3.57;;;8.30;99.90;;;;;;5352993;26;20456;-66
2024/04/20 01:11:07;;;;;;;8.10;3.23;;;8.20;99.90;;;;;;5358812;26;20488;-66
2024/04/20 01:13:33;;;;;;;8.60;3.10;;;8.30;99.90;;;;;;5356828;26;20721;-67
2024/04/20 01:15:59;;;;;;;12.50;3.30;;;8.30;99.90;;;;;;5359850;26;20626;-67
2024/04/20 01:18:25;;;;;;;8.63;3.47;;;8.20;99.90;;;;;;5366926;26;20230;-67
2024/04/20 01:20:50;;;;;;;8.10;3.83;;;8.20;99.90;;;;;;5346883;26;20955;-67
2024/04/20 01:23:16;;;;;;;9.07;3.27;;;8.10;99.90;;;;;;5349358;26;20524;-67
2024/04/20 01:25:51;;;;;;;8.70;3.00;;;8.10;99.90;;;;;;5358907;26;20981;-67
2024/04/20 01:28:17;;;;;;;10.43;3.53;;;8.10;99.90;;;;;;5358258;26;20469;-67
2024/04/20 01:30:43;;;;;;;7.00;4.17;;;8.00;99.90;;;;;;5357640;26;20526;-67
2024/04/20 01:33:09;;;;;;;8.10;3.17;;;8.00;99.90;;;;;;5353140;26;20524;-67
2024/04/20 01:35:37;;;;;;;12.10;3.27;;;8.10;99.90;;;;;;5346987;26;20307;-67
2024/04/20 01:38:03;;;;;;;8.37;3.17;;;8.00;99.90;;;;;;5359163;26;20296;-67
2024/04/20 01:40:29;;;;;;;9.80;4.17;;;8.00;99.90;;;;;;5342633;26;20472;-67
2024/04/20 01:42:54;;;;;;;10.50;3.50;;;8.00;99.90;;;;;;5350415;26;20284;-67
2024/04/20 01:45:20;;;;;;;13.07;4.00;;;8.10;99.90;;;;;;5346113;26;20345;-65
2024/04/20 01:47:45;;;;;;;7.17;3.40;;;8.00;99.90;;;;;;5349410;26;20797;-66
2024/04/20 01:50:12;;;;;;;10.30;3.27;;;8.00;99.90;;;;;;5347765;26;20991;-66
2024/04/20 01:52:38;;;;;;;6.40;3.20;;;8.00;99.90;;;;;;5350597;26;20238;-66
2024/04/20 01:55:04;;;;;;;13.63;3.73;;;8.00;99.90;;;;;;5347736;26;20549;-66
2024/04/20 01:57:30;;;;;;;7.17;3.50;;;8.00;99.90;;;;;;5355692;26;20834;-67
2024/04/20 01:59:56;;;;;;;8.87;3.40;;;8.00;99.90;;;;;;5351737;26;20542;-66
2024/04/20 02:02:22;;;;;;;7.53;2.97;;;8.00;99.90;;;;;;5359838;26;20486;-66
2024/04/20 02:04:48;;;;;;;5.60;3.07;;;7.90;99.90;;;;;;5353314;26;20235;-66
2024/04/20 02:07:13;;;;;;;7.80;2.90;;;7.90;99.90;;;;;;5346834;26;20316;-66
2024/04/20 02:09:40;;;;;;;12.47;3.37;;;7.90;99.90;;;;;;5350136;26;20608;-67
2024/04/20 02:12:06;;;;;;;16.03;4.10;;;7.80;99.90;;;;;;5348701;26;20247;-66
2024/04/20 02:14:32;;;;;;;12.33;3.40;;;7.80;99.90;;;;;;5351447;26;20487;-67
2024/04/20 02:16:57;;;;;;;6.70;3.10;;;7.80;99.90;;;;;;5352808;26;20473;-66
2024/04/20 02:19:23;;;;;;;10.00;3.50;;;7.70;99.90;;;;;;5345462;26;20251;-67
2024/04/20 02:21:48;;;;;;;9.67;4.50;;;7.60;99.90;;;;;;5343130;26;20354;-67
2024/04/20 02:24:14;;;;;;;10.10;3.17;;;7.50;99.90;;;;;;5352608;26;20613;-67
2024/04/20 02:26:40;;;;;;;9.43;2.87;;;7.50;99.90;;;;;;5347798;26;20611;-67
2024/04/20 02:29:05;;;;;;;12.00;3.30;;;7.50;99.90;;;;;;5351254;26;20794;-67
2024/04/20 02:31:31;;;;;;;10.70;2.90;;;7.60;99.90;;;;;;5362205;26;20258;-67
2024/04/20 02:33:57;;;;;;;11.17;3.20;;;7.60;99.90;;;;;;5353301;26;20666;-66
2024/04/20 02:36:25;;;;;;;10.20;3.60;;;7.60;99.90;;;;;;5356059;26;20341;-67
2024/04/20 02:38:50;;;;;;;5.87;3.10;;;7.60;99.90;;;;;;5343233;26;20242;-66
2024/04/20 02:41:16;;;;;;;10.57;3.33;;;7.50;99.90;;;;;;5350014;26;20925;-66
2024/04/20 02:43:42;;;;;;;12.77;3.53;;;7.40;99.90;;;;;;5339259;26;20717;-66
2024/04/20 02:46:08;;;;;;;13.00;3.90;;;7.50;99.90;;;;;;5348125;26;20289;-67
2024/04/20 02:48:34;;;;;;;5.40;2.80;;;7.50;99.90;;;;;;5346642;26;20460;-67
2024/04/20 02:51:00;;;;;;;12.97;3.37;;;7.50;99.90;;;;;;5343189;26;20278;-67
2024/04/20 02:53:26;;;;;;;7.60;3.37;;;7.40;99.90;;;;;;5346959;26;20470;-66
2024/04/20 02:55:52;;;;;;;9.33;3.30;;;7.40;99.90;;;;;;5353030;26;20352;-67
2024/04/20 02:58:18;;;;;;;5.60;3.20;;;7.50;99.90;;;;;;5345322;26;20522;-67
2024/04/20 03:00:57;;;;;;;14.13;3.97;;;7.50;99.90;;;;;;5353624;26;20267;-67
2024/04/20 03:03:24;;;;;;;7.97;3.77;;;7.40;99.90;;;;;;5349730;26;20464;-67
2024/04/20 03:05:50;;;;;;;8.13;3.23;;;7.50;99.90;;;;;;5356069;26;20476;-68
2024/04/20 03:08:15;;;;;;;14.10;3.37;;;7.60;99.90;;;;;;5355303;26;20469;-67
2024/04/20 03:10:41;;;;;;;8.03;2.90;;;7.50;99.90;;;;;;5364978;26;20230;-67
2024/04/20 03:13:07;;;;;;;8.00;3.70;;;7.60;99.90;;;;;;5357632;26;20249;-67
2024/04/20 03:15:32;;;;;;;7.77;3.43;;;7.50;99.90;;;;;;5358127;26;20245;-67
2024/04/20 03:17:58;;;;;;;9.60;3.30;;;7.50;99.90;;;;;;5351200;26;20235;-67
2024/04/20 03:20:23;;;;;;;7.20;2.80;;;7.50;99.90;;;;;;5354488;26;20234;-67
2024/04/20 03:22:49;;;;;;;8.77;3.60;;;7.50;99.90;;;;;;5351350;26;20290;-67
2024/04/20 03:25:15;;;;;;;7.00;2.83;;;7.50;99.90;;;;;;5356947;26;20306;-66
2024/04/20 03:27:41;;;;;;;8.20;3.30;;;7.40;99.90;;;;;;5356795;26;21040;-67
2024/04/20 03:30:07;;;;;;;8.00;3.33;;;7.40;99.90;;;;;;5355407;26;20530;-67
2024/04/20 03:32:33;;;;;;;7.70;3.10;;;7.40;99.90;;;;;;5352177;26;20249;-67
2024/04/20 03:34:59;;;;;;;7.17;3.17;;;7.30;99.90;;;;;;5344674;26;20481;-66
2024/04/20 03:37:24;;;;;;;6.30;3.00;;;7.40;99.90;;;;;;5348940;26;20281;-67
2024/04/20 03:39:50;;;;;;;6.47;2.87;;;7.40;99.90;;;;;;5345826;26;20231;-66
2024/04/20 03:42:15;;;;;;;10.13;3.00;;;7.30;99.90;;;;;;5363577;26;21039;-67
2024/04/20 03:44:41;;;;;;;7.73;3.13;;;7.40;99.90;;;;;;5350250;26;20234;-67
2024/04/20 03:47:06;;;;;;;10.63;3.70;;;7.30;99.90;;;;;;5350725;26;20245;-68
2024/04/20 03:49:32;;;;;;;7.73;3.10;;;7.40;99.90;;;;;;5349175;26;20326;-67
2024/04/20 03:51:58;;;;;;;11.93;3.67;;;7.40;99.90;;;;;;5355493;26;20280;-68
2024/04/20 03:54:23;;;;;;;9.90;3.20;;;7.40;99.90;;;;;;5358631;26;20568;-68
2024/04/20 03:56:49;;;;;;;14.90;3.90;;;7.40;99.90;;;;;;5355958;26;20295;-66
2024/04/20 03:59:14;;;;;;;9.23;5.10;;;7.40;99.90;;;;;;5351982;26;20347;-66
2024/04/20 04:01:40;;;;;;;10.50;3.57;;;7.30;99.90;;;;;;5354432;26;20243;-66
2024/04/20 04:04:06;;;;;;;8.97;3.63;;;7.40;99.90;;;;;;5361976;26;20303;-66
2024/04/20 04:06:32;;;;;;;9.70;3.10;;;7.40;99.90;;;;;;5358740;26;20266;-66
2024/04/20 04:08:58;;;;;;;9.50;3.90;;;7.50;99.90;;;;;;5359948;26;20505;-66
2024/04/20 04:11:23;;;;;;;6.43;3.30;;;7.50;99.90;;;;;;5353796;26;20237;-66
2024/04/20 04:13:49;;;;;;;7.93;3.27;;;7.50;99.90;;;;;;5355924;26;22370;-66
2024/04/20 04:16:15;;;;;;;10.83;4.60;;;7.50;99.90;;;;;;5355858;26;20290;-66
2024/04/20 04:18:40;;;;;;;10.80;3.80;;;7.40;99.90;;;;;;5362784;26;20274;-66
2024/04/20 04:21:10;;;;;;;7.93;3.67;;;7.30;99.90;;;;;;5344231;26;20251;-66
2024/04/20 04:23:35;;;;;;;12.23;4.13;;;7.30;99.90;;;;;;5362523;26;20230;-66
2024/04/20 04:26:03;;;;;;;12.47;4.00;;;7.30;99.90;;;;;;5355302;26;20530;-66
2024/04/20 04:28:32;;;;;;;8.60;3.80;;;7.40;99.90;;;;;;5356839;26;22581;-66
2024/04/20 04:30:57;;;;;;;5.53;3.60;;;7.30;99.90;;;;;;5360399;26;20530;-66
2024/04/20 04:33:23;;;;;;;10.87;3.30;;;7.40;99.90;;;;;;5363734;26;20547;-67
2024/04/20 04:35:58;;;;;;;10.67;3.50;;;7.30;99.90;;;;;;5361719;26;20314;-67
2024/04/20 04:38:25;;;;;;;7.30;3.43;;;7.40;99.90;;;;;;5364026;26;20281;-67
2024/04/20 04:40:50;;;;;;;6.70;3.97;;;7.40;99.90;;;;;;5345081;26;20480;-67
2024/04/20 04:43:16;;;;;;;10.87;3.60;;;7.40;99.90;;;;;;5361231;26;20471;-67
2024/04/20 04:45:42;;;;;;;10.20;4.27;;;7.40;99.90;;;;;;5360576;26;20231;-67
2024/04/20 04:48:07;;;;;;;10.70;3.73;;;7.30;99.90;;;;;;5358588;26;20628;-67
2024/04/20 04:50:33;;;;;;;7.60;3.20;;;7.40;99.90;;;;;;5355150;26;20280;-67
2024/04/20 04:53:02;;;;;;;9.63;4.33;;;7.40;99.90;;;;;;5353529;26;20277;-67
2024/04/20 04:55:29;;;;;;;8.87;4.13;;;7.50;99.90;;;;;;5353404;26;20268;-67
2024/04/20 04:57:55;;;;;;;9.00;3.37;;;7.50;99.90;;;;;;5349997;26;20472;-67
2024/04/20 05:00:20;;;;;;;8.40;3.40;;;7.50;99.90;;;;;;5355948;26;20456;-67
2024/04/20 05:02:46;;;;;;;8.83;3.67;;;7.50;99.90;;;;;;5355677;26;20239;-67
2024/04/20 05:05:12;;;;;;;11.30;4.07;;;7.50;99.90;;;;;;5356204;26;20281;-67
2024/04/20 05:07:38;;;;;;;8.20;3.30;;;7.60;99.90;;;;;;5354232;26;20924;-67
2024/04/20 05:10:04;;;;;;;9.73;4.47;;;7.60;99.90;;;;;;5351807;26;20548;-67
2024/04/20 05:12:30;;;;;;;13.87;4.77;;;7.60;99.90;;;;;;5358306;26;20288;-67
2024/04/20 05:14:56;;;;;;;7.07;3.33;;;7.60;99.90;;;;;;5353440;26;20507;-67
2024/04/20 05:17:22;;;;;;;7.50;3.63;;;7.60;99.90;;;;;;5357641;26;20795;-67
2024/04/20 05:19:47;;;;;;;8.83;3.70;;;7.80;99.90;;;;;;5352184;26;21536;-67
2024/04/20 05:22:13;;;;;;;13.20;4.70;;;7.70;99.90;;;;;;5355513;26;20235;-66
2024/04/20 05:24:39;;;;;;;9.83;4.43;;;7.70;99.90;;;;;;5350961;26;20235;-67
2024/04/20 05:27:04;;;;;;;7.47;3.17;;;7.70;99.90;;;;;;5363202;26;20812;-67
2024/04/20 05:29:30;;;;;;;11.00;3.97;;;7.70;99.90;;;;;;5357024;26;20237;-67
2024/04/20 05:31:56;;;;;;;10.03;3.60;;;7.80;99.90;;;;;;5351593;26;20627;-67
2024/04/20 05:34:22;;;;;;;15.07;4.47;;;7.80;99.90;;;;;;5351053;26;20246;-67
2024/04/20 05:36:48;;;;;;;17.20;3.97;;;7.80;99.90;;;;;;5364987;26;21057;-67
2024/04/20 05:39:16;;;;;;;7.10;3.33;;;7.80;99.90;;;;;;5353298;26;20226;-67
2024/04/20 05:41:41;;;;;;;11.40;4.13;;;7.90;99.90;;;;;;5362665;26;20503;-67
2024/04/20 05:44:07;;;;;;;6.93;3.67;;;7.90;99.90;;;;;;5355755;26;20452;-67
2024/04/20 05:46:33;;;;;;;12.37;4.20;;;7.90;99.90;;;;;;5358312;26;20704;-67
2024/04/20 05:48:59;;;;;;;12.90;4.03;;;8.00;99.90;;;;;;5364967;26;20267;-67
2024/04/20 05:51:24;;;;;;;8.67;3.63;;;8.10;99.90;;;;;;5354112;26;20481;-67
2024/04/20 05:53:50;;;;;;;16.80;5.27;;;8.20;99.90;;;;;;5361043;26;20289;-66
2024/04/20 05:56:16;;;;;;;17.67;6.00;;;8.10;99.90;;;;;;5351867;26;20250;-67
2024/04/20 05:58:42;;;;;;;15.37;4.20;;;8.20;99.90;;;;;;5354631;26;20570;-67
2024/04/20 06:01:08;;;;;;;6.93;3.43;;;8.20;99.90;;;;;;5360780;26;20644;-67
2024/04/20 06:03:33;;;;;;;12.13;4.17;;;8.30;99.90;;;;;;5356284;26;20351;-68
2024/04/20 06:05:59;;;;;;;16.90;4.40;;;8.30;99.90;;;;;;5366351;26;20234;-67
2024/04/20 06:08:24;;;;;;;8.80;4.10;;;8.30;99.90;;;;;;5356775;26;20344;-67
2024/04/20 06:10:58;;;;;;;9.60;3.60;;;8.30;99.90;;;;;;5360543;26;20727;-66
2024/04/20 06:13:24;;;;;;;5.13;3.03;;;8.20;99.90;;;;;;5349278;26;20660;-67
2024/04/20 06:15:50;;;;;;;9.97;3.10;;;8.20;99.90;;;;;;5349976;26;20905;-67
2024/04/20 06:18:15;;;;;;;12.73;4.17;;;8.40;99.90;;;;;;5349916;26;20588;-67
2024/04/20 06:20:42;;;;;;;6.90;3.30;;;8.30;99.90;;;;;;5346173;26;20256;-66
2024/04/20 06:23:10;;;;;;;8.70;3.83;;;8.30;99.90;;;;;;5355697;26;20280;-67
2024/04/20 06:25:39;;;;;;;4.50;2.67;;;8.30;99.90;;;;;;5355782;26;21108;-66
2024/04/20 06:28:06;;;;;;;6.73;3.57;;;8.30;99.90;;;;;;5361144;26;20460;-66
2024/04/20 06:30:31;;;;;;;13.13;4.17;;;8.40;99.90;;;;;;5361577;26;20579;-66
2024/04/20 06:32:57;;;;;;;6.43;3.47;;;8.40;99.90;;;;;;5360080;26;20516;-67
2024/04/20 06:35:23;;;;;;;7.93;3.50;;;8.40;99.90;;;;;;5345312;26;20313;-67
2024/04/20 06:37:49;;;;;;;12.20;3.70;;;8.40;99.90;;;;;;5358665;26;20784;-67
2024/04/20 06:40:15;;;;;;;8.60;3.73;;;8.50;99.90;;;;;;5356234;26;20246;-66
2024/04/20 06:42:43;;;;;;;13.33;5.47;;;8.60;99.90;;;;;;5358846;26;20460;-67
2024/04/20 06:45:08;;;;;;;10.73;3.80;;;8.60;99.90;;;;;;5352795;26;20472;-67
2024/04/20 06:47:34;;;;;;;7.90;3.70;;;8.60;99.90;;;;;;5349749;26;21033;-66
2024/04/20 06:49:59;;;;;;;7.60;3.37;;;8.60;99.90;;;;;;5354104;26;20230;-66
2024/04/20 06:52:25;;;;;;;8.17;3.43;;;8.60;99.90;;;;;;5353641;26;20239;-66
2024/04/20 06:54:50;;;;;;;5.90;3.20;;;8.50;99.90;;;;;;5355724;26;20782;-66
2024/04/20 06:57:16;;;;;;;6.90;3.60;;;8.60;99.90;;;;;;5353506;26;20227;-66
2024/04/20 06:59:42;;;;;;;10.00;4.30;;;8.70;99.90;;;;;;5365614;26;21504;-67
2024/04/20 07:02:07;;;;;;;4.90;3.60;;;8.70;99.90;;;;;;5346207;26;20239;-67
2024/04/20 07:04:33;;;;;;;6.00;3.63;;;8.80;99.90;;;;;;5356224;26;20319;-67
2024/04/20 07:06:59;;;;;;;3.87;2.53;;;8.90;99.90;;;;;;5355609;26;20280;-67
2024/04/20 07:09:25;;;;;;;6.33;3.10;;;8.90;99.90;;;;;;5362593;26;20640;-67
2024/04/20 07:11:50;;;;;;;7.20;2.90;;;9.00;99.90;;;;;;5348488;26;20658;-67
2024/04/20 07:14:16;;;;;;;6.07;3.33;;;9.00;99.90;;;;;;5342321;26;20525;-67
2024/04/20 07:16:45;;;;;;;4.90;2.33;;;9.00;99.90;;;;;;5347268;26;20247;-67
2024/04/20 07:19:10;;;;;;;3.90;2.50;;;9.20;99.90;;;;;;5358150;26;20469;-66
2024/04/20 07:21:38;;;;;;;4.40;2.73;;;9.10;99.90;;;;;;5351552;26;20528;-67
2024/04/20 07:24:05;;;;;;;5.90;2.90;;;9.20;99.90;;;;;;5354347;26;20241;-67
2024/04/20 07:26:30;;;;;;;6.47;2.87;;;9.30;99.90;;;;;;5350187;26;20857;-67
2024/04/20 07:28:58;;;;;;;5.40;3.00;;;9.30;99.90;;;;;;5360393;26;20464;-66
2024/04/20 07:31:24;;;;;;;5.20;2.93;;;9.40;99.90;;;;;;5347069;26;20314;-67
2024/04/20 07:33:49;;;;;;;4.80;2.70;;;9.20;99.90;;;;;;5361837;26;20547;-66
2024/04/20 07:36:15;;;;;;;6.40;3.23;;;9.00;99.90;;;;;;5356255;26;20230;-67
2024/04/20 07:38:40;;;;;;;4.20;2.70;;;9.00;99.90;;;;;;5350522;26;20706;-67
2024/04/20 07:41:06;;;;;;;4.23;3.37;;;9.20;99.90;;;;;;5347625;26;20294;-67
2024/04/20 07:43:31;;;;;;;10.43;3.40;;;9.30;99.90;;;;;;5353211;26;20312;-67
2024/04/20 07:45:57;;;;;;;2.90;2.40;;;9.30;99.90;;;;;;5349996;26;20230;-67
2024/04/20 07:48:22;;;;;;;4.80;3.47;;;9.60;99.90;;;;;;5359999;26;20223;-67
2024/04/20 07:50:48;;;;;;;3.83;2.50;;;9.60;99.90;;;;;;5363038;26;20242;-67
2024/04/20 07:53:14;;;;;;;6.00;3.03;;;9.70;99.90;;;;;;5361943;26;20762;-66
2024/04/20 07:55:39;;;;;;;6.57;2.93;;;9.90;99.90;;;;;;5351122;26;20251;-66
2024/04/20 07:58:05;;;;;;;3.63;2.60;;;10.00;99.90;;;;;;5353616;26;20233;-67
2024/04/20 08:00:30;;;;;;;6.20;2.80;;;9.80;99.90;;;;;;5354167;26;20301;-67
2024/04/20 08:02:56;;;;;;;6.70;3.20;;;10.00;99.90;;;;;;5361878;26;20265;-67
2024/04/20 08:05:22;;;;;;;3.90;3.23;;;10.10;99.90;;;;;;5355925;26;20250;-67
2024/04/20 08:07:47;;;;;;;3.23;2.80;;;10.10;99.90;;;;;;5357585;26;20476;-67
2024/04/20 08:10:13;;;;;;;3.73;2.87;;;10.10;99.90;;;;;;5353793;26;20281;-67
2024/04/20 08:12:39;;;;;;;5.10;2.80;;;10.20;99.90;;;;;;5357767;26;20234;-67
2024/04/20 08:15:05;;;;;;;5.80;3.07;;;10.20;99.90;;;;;;5357662;26;20687;-67
2024/04/20 08:17:31;;;;;;;6.00;2.87;;;10.10;99.90;;;;;;5350242;26;20307;-67
2024/04/20 08:19:56;;;;;;;5.30;3.33;;;10.20;99.90;;;;;;5352045;26;20870;-67
2024/04/20 08:22:22;;;;;;;5.33;2.70;;;10.30;99.90;;;;;;5358317;26;20257;-67
2024/04/20 08:24:47;;;;;;;4.77;3.10;;;10.60;99.90;;;;;;5350157;26;20239;-67
2024/04/20 08:27:15;;;;;;;3.10;2.80;;;10.80;99.90;;;;;;5353892;26;20230;-67
2024/04/20 08:29:41;;;;;;;5.57;2.60;;;10.90;99.90;;;;;;5354745;26;20347;-67
2024/04/20 08:32:06;;;;;;;7.10;2.80;;;11.10;99.90;;;;;;5352171;26;21106;-67
2024/04/20 08:34:32;;;;;;;2.90;2.40;;;11.20;99.90;;;;;;5356939;26;20241;-68
2024/04/20 08:36:58;;;;;;;4.83;2.50;;;11.20;99.90;;;;;;5359074;26;20257;-67
2024/04/20 08:39:24;;;;;;;3.10;2.60;;;11.20;99.90;;;;;;5348684;26;20306;-68
2024/04/20 08:42:22;;;;;;;5.20;2.77;;;11.20;99.90;;;;;;5353783;26;20587;-67
2024/04/20 08:44:49;;;;;;;4.57;2.60;;;11.20;99.90;;;;;;5347894;26;20377;-67
2024/04/20 08:47:14;;;;;;;3.80;2.73;;;11.30;99.90;;;;;;5353260;26;20781;-68
2024/04/20 08:49:42;;;;;;;3.80;2.47;;;11.40;99.90;;;;;;5347488;26;20523;-68
2024/04/20 08:52:09;;;;;;;5.87;2.90;;;11.50;99.90;;;;;;5353737;26;20247;-68
2024/04/20 08:54:36;;;;;;;4.70;2.90;;;11.50;99.90;;;;;;5361370;26;20452;-67
2024/04/20 08:57:02;;;;;;;6.10;3.17;;;11.40;99.90;;;;;;5356416;26;20462;-67
2024/04/20 08:59:29;;;;;;;4.43;3.40;;;11.50;99.90;;;;;;5348804;26;20453;-67
2024/04/20 09:01:56;;;;;;;6.53;3.20;;;11.60;99.90;;;;;;5346482;26;20461;-68
2024/04/20 09:04:22;;;;;;;5.93;3.30;;;11.60;99.90;;;;;;5357333;26;20507;-68
2024/04/20 09:06:48;;;;;;;5.60;3.30;;;11.60;99.90;;;;;;5353033;26;21073;-68
2024/04/20 09:09:16;;;;;;;5.03;3.43;;;11.60;99.90;;;;;;5354736;26;20478;-68
2024/04/20 09:11:42;;;;;;;5.53;3.47;;;11.60;99.90;;;;;;5356744;26;20301;-68
2024/04/20 09:14:07;;;;;;;5.80;3.23;;;11.60;99.90;;;;;;5359476;26;20476;-68
2024/04/20 09:16:33;;;;;;;5.63;3.30;;;11.70;99.90;;;;;;5353484;26;20288;-68
2024/04/20 09:19:03;;;;;;;3.90;3.50;;;11.60;99.90;;;;;;5361245;26;20318;-67
2024/04/20 09:21:29;;;;;;;4.03;3.63;;;11.90;99.90;;;;;;5352550;26;21177;-67
2024/04/20 09:24:07;;;;;;;6.60;3.80;;;12.00;99.90;;;;;;5345622;26;20478;-67
2024/04/20 09:26:34;;;;;;;9.40;4.00;;;11.80;99.90;;;;;;5348061;26;20239;-68
2024/04/20 09:29:00;;;;;;;4.10;3.43;;;11.90;99.90;;;;;;5357198;26;20539;-67
2024/04/20 09:31:27;;;;;;;4.90;3.30;;;11.90;99.90;;;;;;5362999;26;20512;-67
2024/04/20 09:33:56;;;;;;;4.27;3.20;;;12.00;99.90;;;;;;5354041;26;20471;-67
2024/04/20 09:36:21;;;;;;;7.77;3.40;;;12.20;99.90;;;;;;5354924;26;20533;-66
2024/04/20 09:38:47;;;;;;;3.93;3.00;;;12.10;99.90;;;;;;5354509;26;20527;-67
2024/04/20 09:41:16;;;;;;;6.97;3.70;;;12.30;99.90;;;;;;5346823;26;20243;-68
2024/04/20 09:43:46;;;;;;;4.00;3.43;;;12.40;99.90;;;;;;5351868;26;20282;-68
2024/04/20 09:46:12;;;;;;;5.73;3.60;;;12.40;99.90;;;;;;5364839;26;20468;-68
2024/04/20 09:48:38;;;;;;;4.73;3.33;;;12.50;99.90;;;;;;5355131;26;20518;-69
2024/04/20 09:51:12;;;;;;;6.53;3.13;;;12.60;99.90;;;;;;5350142;26;20912;-68
2024/04/20 09:53:40;;;;;;;7.80;3.87;;;12.60;99.90;;;;;;5347102;26;20510;-69
2024/04/20 09:56:07;;;;;;;4.60;3.00;;;12.50;99.90;;;;;;5356945;26;20560;-69
2024/04/20 09:58:37;;;;;;;5.10;3.37;;;12.40;99.90;;;;;;5346901;26;20473;-68
2024/04/20 10:01:04;;;;;;;3.33;2.93;;;12.40;99.90;;;;;;5349691;26;21683;-68
2024/04/20 10:03:32;;;;;;;3.77;2.90;;;12.50;99.90;;;;;;5351937;26;20841;-68
2024/04/20 10:05:58;;;;;;;4.30;3.10;;;12.60;99.90;;;;;;5354826;26;20470;-68
2024/04/20 10:08:24;;;;;;;4.50;2.97;;;12.70;99.90;;;;;;5346154;26;20513;-69
2024/04/20 10:10:50;;;;;;;3.70;2.93;;;12.80;99.90;;;;;;5356506;26;20480;-69
2024/04/20 10:13:15;;;;;;;5.10;2.90;;;13.10;99.90;;;;;;5355606;26;20540;-68
2024/04/20 10:15:44;;;;;;;5.93;3.17;;;13.10;99.90;;;;;;5354278;26;20272;-67
2024/04/20 10:18:10;;;;;;;6.17;4.50;;;13.20;99.90;;;;;;5351975;26;20239;-67
2024/04/20 10:20:37;;;;;;;3.93;3.00;;;13.30;99.90;;;;;;5360172;26;20460;-67
2024/04/20 10:23:22;;;;;;;4.20;3.80;;;13.30;99.90;;;;;;5350011;26;20298;-66
2024/04/20 10:25:53;;;;;;;4.57;3.70;;;13.30;99.90;;;;;;5353799;26;20464;-66
2024/04/20 10:28:31;;;;;;;5.80;5.20;;;13.20;99.90;;;;;;5359270;26;20468;-67
2024/04/20 10:30:59;;;;;;;7.50;4.63;;;13.00;98.80;;;;;;5347562;26;20520;-67
2024/04/20 10:33:30;;;;;;;5.27;2.93;;;13.00;98.90;;;;;;5349180;26;20466;-67
2024/04/20 10:36:02;;;;;;;7.20;4.63;;;12.90;98.40;;;;;;5344593;26;21009;-67
2024/04/20 10:38:31;;;;;;;2.80;2.57;;;12.80;99.20;;;;;;5354772;26;20484;-66
2024/04/20 10:40:57;;;;;;;3.53;3.07;;;12.80;99.00;;;;;;5343975;26;21161;-66
2024/04/20 10:43:25;;;;;;;4.60;3.30;;;12.70;97.70;;;;;;5362891;26;20521;-67
2024/04/20 10:46:09;;;;;;;5.10;3.83;;;12.80;98.00;;;;;;5347361;26;20885;-66
2024/04/20 10:48:41;;;;;;;5.27;3.20;;;12.70;97.00;;;;;;5342526;26;20468;-66
2024/04/20 10:51:10;;;;;;;3.90;2.90;;;13.00;97.70;;;;;;5345282;26;21006;-67
2024/04/20 10:53:39;;;;;;;5.13;3.03;;;13.10;96.00;;;;;;5356193;26;20462;-67
2024/04/20 10:56:08;;;;;;;6.00;3.30;;;13.30;96.40;;;;;;5352580;26;20876;-68
2024/04/20 10:58:34;;;;;;;6.60;3.00;;;13.60;96.70;;;;;;5354746;26;20859;-67
2024/04/20 11:01:00;;;;;;;6.03;3.13;;;13.60;95.20;;;;;;5356877;26;20508;-68
2024/04/20 11:03:25;;;;;;;3.53;2.73;;;13.70;95.00;;;;;;5348196;26;20520;-67
2024/04/20 11:05:55;;;;;;;4.27;2.70;;;13.80;95.10;;;;;;5362773;26;20716;-68
2024/04/20 11:08:23;;;;;;;4.50;3.50;;;14.00;95.70;;;;;;5356187;26;20336;-68
2024/04/20 11:11:02;;;;;;;4.33;3.00;;;14.10;95.50;;;;;;5355497;26;20515;-68
2024/04/20 11:13:29;;;;;;;2.80;2.57;;;14.30;95.70;;;;;;5358705;26;20816;-69
2024/04/20 11:15:55;;;;;;;4.13;3.60;;;14.30;94.20;;;;;;5344570;26;20461;-68
2024/04/20 11:18:21;;;;;;;3.13;2.50;;;14.30;94.20;;;;;;5346610;26;20506;-68
2024/04/20 11:20:46;;;;;;;3.23;2.67;;;14.30;93.80;;;;;;5350944;26;20476;-68
2024/04/20 11:23:15;;;;;;;4.30;2.80;;;14.10;91.40;;;;;;5356716;26;20279;-68
2024/04/20 11:25:53;;;;;;;9.20;3.00;;;13.80;91.10;;;;;;5340381;26;20234;-68
2024/04/20 11:28:21;;;;;;;4.70;3.30;;;13.60;91.50;;;;;;5358849;26;20823;-68
2024/04/20 11:30:47;;;;;;;5.97;3.57;;;13.50;91.90;;;;;;5359643;26;20476;-67
2024/04/20 11:33:12;;;;;;;2.87;2.53;;;13.50;92.30;;;;;;5361613;26;20468;-67
2024/04/20 11:35:44;;;;;;;4.30;3.90;;;13.20;91.90;;;;;;5352528;26;20462;-68
2024/04/20 11:38:13;;;;;;;4.70;3.33;;;12.80;91.00;;;;;;5362286;26;20222;-68
2024/04/20 11:40:44;;;;;;;6.10;3.43;;;12.40;94.70;;;;;;5353742;26;20557;-69
2024/04/20 11:43:09;;;;;;;4.20;3.30;;;12.10;98.00;;;;;;5351054;26;20473;-68
2024/04/20 11:45:44;;;;;;;7.50;3.63;;;11.70;99.90;;;;;;5349665;26;21219;-67
2024/04/20 11:48:10;;;;;;;5.90;3.60;;;11.30;99.90;;;;;;5357924;26;20246;-68
2024/04/20 11:50:36;;;;;;;5.83;4.03;;;11.20;99.90;;;;;;5354352;26;20464;-68
2024/04/20 11:55:46;;;;;;;5.20;3.40;;;11.40;99.90;;;;;;5355605;26;20347;-68
2024/04/20 11:58:12;;;;;;;3.93;3.23;;;11.50;99.90;;;;;;5352173;26;20476;-68
2024/04/20 12:00:38;;;;;;;5.40;3.97;;;11.80;99.90;;;;;;5350058;26;20230;-67
2024/04/20 12:03:04;;;;;;;5.93;3.50;;;12.40;99.90;;;;;;5338682;26;20239;-68
2024/04/20 12:05:30;;;;;;;5.03;3.40;;;12.50;99.90;;;;;;5338604;26;20534;-69
2024/04/20 12:07:56;;;;;;;3.70;3.20;;;13.30;99.90;;;;;;5339334;26;20485;-68
2024/04/20 12:10:21;;;;;;;3.70;3.17;;;14.60;99.90;;;;;;5349145;26;20330;-68
2024/04/20 12:12:47;;;;;;;4.17;3.30;;;15.70;99.90;;;;;;5353173;26;20536;-69
2024/04/20 12:15:13;;;;;;;5.60;3.60;;;16.60;99.90;;;;;;5350520;26;20279;-70
2024/04/20 12:17:39;;;;;;;3.97;2.97;;;18.00;99.80;;;;;;5351766;26;20692;-68
2024/04/20 12:20:10;;;;;;;3.80;2.90;;;18.80;95.50;;;;;;5343854;26;20557;-68
2024/04/20 12:22:36;;;;;;;5.00;3.00;;;18.50;93.10;;;;;;5346949;26;20257;-68
2024/04/20 12:25:01;;;;;;;2.90;2.60;;;18.60;88.20;;;;;;5355557;26;21135;-69
2024/04/20 12:27:27;;;;;;;4.60;3.30;;;18.20;86.80;;;;;;5348862;26;20699;-69
2024/04/20 12:29:52;;;;;;;3.33;2.90;;;19.80;88.60;;;;;;5350689;26;20918;-67
2024/04/20 12:32:18;;;;;;;4.80;3.20;;;20.90;82.80;;;;;;5314146;26;20258;-68
2024/04/20 12:34:44;;;;;;;4.70;3.40;;;20.50;69.30;;;;;;5346041;26;20237;-67
2024/04/20 12:37:10;;;;;;;5.50;3.70;;;20.20;67.40;;;;;;5343576;26;20261;-67
2024/04/20 12:39:35;;;;;;;3.77;2.60;;;19.50;66.10;;;;;;5349496;26;20600;-67
2024/04/20 12:42:02;;;;;;;3.03;2.40;;;18.50;66.10;;;;;;5348710;26;20239;-67
2024/04/20 12:44:28;;;;;;;3.10;2.63;;;17.70;68.70;;;;;;5341903;26;20747;-68
2024/04/20 12:46:54;;;;;;;3.20;2.90;;;17.10;69.70;;;;;;5344984;26;20476;-69
2024/04/20 12:49:20;;;;;;;3.60;2.60;;;16.70;71.10;;;;;;5353954;26;20289;-68